createdAt,value
2018-08-20T00:00:51.377Z,15.30
2018-08-20T00:03:19.645Z,17.23
2018-08-20T00:05:54.082Z,13.03
2018-08-20T00:08:22.975Z,11.60
2018-08-20T00:10:56.618Z,14.97
2018-08-20T00:13:25.338Z,20.87
2018-08-20T00:15:54.193Z,20.43
2018-08-20T00:18:27.786Z,20.93
2018-08-20T00:20:56.083Z,15.53
2018-08-20T00:23:25.015Z,18.70
2018-08-20T00:25:56.232Z,17.23
2018-08-20T00:28:24.515Z,16.90
2018-08-20T00:30:52.774Z,22.33
2018-08-20T00:33:21.076Z,17.73
2018-08-20T00:35:49.428Z,16.60
2018-08-20T00:38:17.714Z,15.20
2018-08-20T00:40:46.322Z,20.67
2018-08-20T00:43:14.675Z,15.83
2018-08-20T00:45:43.184Z,15.73
2018-08-20T00:48:11.463Z,17.33
2018-08-20T00:50:39.840Z,15.40
2018-08-20T00:53:08.085Z,18.67
2018-08-20T00:55:36.393Z,20.17
2018-08-20T00:58:05.005Z,17.33
2018-08-20T01:00:33.245Z,25.93
2018-08-20T01:03:01.517Z,15.40
2018-08-20T01:05:29.768Z,13.07
2018-08-20T01:07:58.044Z,13.80
2018-08-20T01:10:26.345Z,19.73
2018-08-20T01:12:54.611Z,15.80
2018-08-20T01:15:22.957Z,16.97
2018-08-20T01:17:51.220Z,22.40
2018-08-20T01:20:19.512Z,18.47
2018-08-20T01:22:47.821Z,20.83
2018-08-20T01:25:16.073Z,15.60
2018-08-20T01:27:49.936Z,17.50
2018-08-20T01:30:18.248Z,16.30
2018-08-20T01:32:46.519Z,25.03
2018-08-20T01:35:24.486Z,18.83
2018-08-20T01:37:52.756Z,19.70
2018-08-20T01:40:21.089Z,17.80
2018-08-20T01:42:49.356Z,16.30
2018-08-20T01:45:17.614Z,21.33
2018-08-20T01:47:45.901Z,14.47
2018-08-20T01:50:14.152Z,20.00
2018-08-20T01:52:42.387Z,18.80
2018-08-20T01:55:10.662Z,11.57
2018-08-20T01:57:38.960Z,12.87
2018-08-20T02:00:07.252Z,16.27
2018-08-20T02:02:35.522Z,14.20
2018-08-20T02:05:04.219Z,16.93
2018-08-20T02:07:32.482Z,17.63
2018-08-20T02:10:00.748Z,17.60
2018-08-20T02:12:29.013Z,16.20
2018-08-20T02:14:57.266Z,12.33
2018-08-20T02:17:25.810Z,15.47
2018-08-20T02:19:54.090Z,18.47
2018-08-20T02:22:22.345Z,16.53
2018-08-20T02:24:50.546Z,14.40
2018-08-20T02:27:18.893Z,19.13
2018-08-20T02:29:47.134Z,16.47
2018-08-20T02:32:15.374Z,14.30
2018-08-20T02:34:43.628Z,20.53
2018-08-20T02:37:11.949Z,15.10
2018-08-20T02:39:40.174Z,15.13
2018-08-20T02:42:08.401Z,18.50
2018-08-20T02:44:36.637Z,14.70
2018-08-20T02:47:05.377Z,23.40
2018-08-20T02:49:33.635Z,20.03
2018-08-20T02:52:01.897Z,14.30
2018-08-20T02:54:30.170Z,17.07
2018-08-20T02:56:58.402Z,14.77
2018-08-20T02:59:26.749Z,16.23
2018-08-20T03:01:54.992Z,15.90
2018-08-20T03:04:23.236Z,16.33
2018-08-20T03:06:51.444Z,15.87
2018-08-20T03:09:19.676Z,21.20
2018-08-20T03:11:47.979Z,18.63
2018-08-20T03:14:16.226Z,13.53
2018-08-20T03:16:44.502Z,20.17
2018-08-20T03:19:12.748Z,19.00
2018-08-20T03:21:41.023Z,22.50
2018-08-20T03:24:09.308Z,15.87
2018-08-20T03:26:37.557Z,16.07
2018-08-20T03:29:05.791Z,17.33
2018-08-20T03:31:34.447Z,18.63
2018-08-20T03:34:02.697Z,17.07
2018-08-20T03:36:30.980Z,18.53
2018-08-20T03:38:59.206Z,20.20
2018-08-20T03:41:27.433Z,16.73
2018-08-20T03:43:55.680Z,14.13
2018-08-20T03:46:23.933Z,22.83
2018-08-20T03:48:52.614Z,23.17
2018-08-20T03:51:20.854Z,21.23
2018-08-20T03:53:49.145Z,20.40
2018-08-20T03:56:17.402Z,23.87
2018-08-20T03:58:45.677Z,24.13
2018-08-20T04:01:13.931Z,19.20
2018-08-20T04:03:42.187Z,18.97
2018-08-20T04:06:10.413Z,21.10
2018-08-20T04:08:38.752Z,19.00
2018-08-20T04:11:07.006Z,21.10
2018-08-20T04:13:35.285Z,21.87
2018-08-20T04:16:03.532Z,16.03
2018-08-20T04:18:31.936Z,22.63
2018-08-20T04:21:00.167Z,17.57
2018-08-20T04:23:28.435Z,25.80
2018-08-20T04:25:56.661Z,22.90
2018-08-20T04:28:24.871Z,24.30
2018-08-20T04:30:53.129Z,19.43
2018-08-20T04:33:21.352Z,24.63
2018-08-20T04:35:49.606Z,27.73
2018-08-20T04:38:17.841Z,27.47
2018-08-20T04:40:46.202Z,22.33
2018-08-20T04:43:14.401Z,19.40
2018-08-20T04:45:42.649Z,21.83
2018-08-20T04:48:10.883Z,20.57
2018-08-20T04:50:39.178Z,18.27
2018-08-20T04:53:07.397Z,19.73
2018-08-20T04:55:35.978Z,27.60
2018-08-20T04:58:04.273Z,17.60
2018-08-20T05:00:32.528Z,26.30
2018-08-20T05:03:00.771Z,17.30
2018-08-20T05:05:28.996Z,25.57
2018-08-20T05:07:57.269Z,22.67
2018-08-20T05:10:25.498Z,27.13
2018-08-20T05:12:53.833Z,15.73
2018-08-20T05:15:22.049Z,27.60
2018-08-20T05:17:50.347Z,19.60
2018-08-20T05:20:18.561Z,19.93
2018-08-20T05:22:46.843Z,26.43
2018-08-20T05:25:15.097Z,24.87
2018-08-20T05:27:43.338Z,22.33
2018-08-20T05:30:11.582Z,17.03
2018-08-20T05:32:39.810Z,18.63
2018-08-20T05:35:08.129Z,21.43
2018-08-20T05:37:36.632Z,18.37
2018-08-20T05:40:04.940Z,23.07
2018-08-20T05:42:33.164Z,19.47
2018-08-20T05:45:01.448Z,21.73
2018-08-20T05:47:29.718Z,20.07
2018-08-20T05:49:57.996Z,20.83
2018-08-20T05:52:26.244Z,18.07
2018-08-20T05:54:54.526Z,20.93
2018-08-20T05:57:22.802Z,23.27
2018-08-20T05:59:51.098Z,26.53
2018-08-20T06:02:19.473Z,18.77
2018-08-20T06:04:48.200Z,22.93
2018-08-20T06:07:16.450Z,23.30
2018-08-20T06:09:44.714Z,21.80
2018-08-20T06:12:12.991Z,20.63
2018-08-20T06:14:42.055Z,19.30
2018-08-20T06:17:10.325Z,19.70
2018-08-20T06:19:38.635Z,32.50
2018-08-20T06:22:06.888Z,26.37
2018-08-20T06:24:35.174Z,20.50
2018-08-20T06:27:03.470Z,24.20
2018-08-20T06:29:31.690Z,20.30
2018-08-20T06:31:59.947Z,20.13
2018-08-20T06:34:28.217Z,21.40
2018-08-20T06:36:56.518Z,24.03
2018-08-20T06:39:24.763Z,25.83
2018-08-20T06:41:53.092Z,26.40
2018-08-20T06:44:21.359Z,19.43
2018-08-20T06:46:49.629Z,23.90
2018-08-20T06:49:17.849Z,24.73
2018-08-20T06:51:46.113Z,25.40
2018-08-20T06:54:14.360Z,25.63
2018-08-20T06:56:42.609Z,28.93
2018-08-20T06:59:10.913Z,25.90
2018-08-20T07:01:39.141Z,27.90
2018-08-20T07:04:07.864Z,30.53
2018-08-20T07:06:36.121Z,40.57
2018-08-20T07:09:05.631Z,24.27
2018-08-20T07:11:33.851Z,29.60
2018-08-20T07:14:02.118Z,29.50
2018-08-20T07:16:30.378Z,24.63
2018-08-20T07:18:58.652Z,30.67
2018-08-20T07:21:26.918Z,33.33
2018-08-20T07:23:55.324Z,30.67
2018-08-20T07:26:23.514Z,26.30
2018-08-20T07:28:51.780Z,27.10
2018-08-20T07:31:20.072Z,30.00
2018-08-20T07:33:48.355Z,29.70
2018-08-20T07:36:16.720Z,31.57
2018-08-20T07:38:45.032Z,27.87
2018-08-20T07:41:13.274Z,29.57
2018-08-20T07:43:41.536Z,36.20
2018-08-20T07:46:09.814Z,30.90
2018-08-20T07:48:38.099Z,25.40
2018-08-20T07:51:06.746Z,29.73
2018-08-20T07:53:34.999Z,27.20
2018-08-20T07:56:03.315Z,26.20
2018-08-20T07:58:31.577Z,30.47
2018-08-20T08:00:59.863Z,27.27
2018-08-20T08:03:30.748Z,24.67
2018-08-20T08:06:00.828Z,26.37
2018-08-20T08:08:30.691Z,29.93
2018-08-20T08:10:59.862Z,30.37
2018-08-20T08:13:28.101Z,26.27
2018-08-20T08:15:56.387Z,27.77
2018-08-20T08:18:24.662Z,33.57
2018-08-20T08:20:52.905Z,35.20
2018-08-20T08:23:21.156Z,27.87
2018-08-20T08:25:49.464Z,35.63
2018-08-20T08:28:17.733Z,31.70
2018-08-20T08:30:45.982Z,35.47
2018-08-20T08:33:14.242Z,32.67
2018-08-20T08:35:42.497Z,38.47
2018-08-20T08:38:10.808Z,31.60
2018-08-20T08:40:39.023Z,34.73
2018-08-20T08:43:07.320Z,31.17
2018-08-20T08:45:35.519Z,30.83
2018-08-20T08:48:03.822Z,31.23
2018-08-20T08:50:32.073Z,31.63
2018-08-20T08:53:00.286Z,36.20
2018-08-20T08:55:28.535Z,31.80
2018-08-20T08:57:56.768Z,33.07
2018-08-20T09:00:25.065Z,36.53
2018-08-20T09:02:53.246Z,35.90
2018-08-20T09:05:21.497Z,36.03
2018-08-20T09:07:49.780Z,28.67
2018-08-20T09:10:18.031Z,28.10
2018-08-20T09:12:46.271Z,30.80
2018-08-20T09:15:16.730Z,28.00
2018-08-20T09:17:45.057Z,30.67
2018-08-20T09:20:14.837Z,29.67
2018-08-20T09:22:43.079Z,26.47
2018-08-20T09:25:12.417Z,27.10
2018-08-20T09:27:41.227Z,24.60
2018-08-20T09:30:14.439Z,28.30
2018-08-20T09:32:42.926Z,25.37
2018-08-20T09:35:11.179Z,24.40
2018-08-20T09:37:39.699Z,22.40
2018-08-20T09:40:08.799Z,31.60
2018-08-20T09:42:37.556Z,23.67
2018-08-20T09:45:06.125Z,20.30
2018-08-20T09:47:34.711Z,19.83
2018-08-20T09:50:03.244Z,30.03
2018-08-20T09:52:31.501Z,29.33
2018-08-20T09:55:00.123Z,26.67
2018-08-20T09:57:28.404Z,29.90
2018-08-20T09:59:56.673Z,27.20
2018-08-20T10:02:25.964Z,20.07
2018-08-20T10:04:54.203Z,29.97
2018-08-20T10:07:22.497Z,24.77
2018-08-20T10:09:50.763Z,20.37
2018-08-20T10:12:19.016Z,20.70
2018-08-20T10:14:47.355Z,21.40
2018-08-20T10:17:15.608Z,22.50
2018-08-20T10:19:43.889Z,20.53
2018-08-20T10:22:12.136Z,19.63
2018-08-20T10:24:40.437Z,18.07
2018-08-20T10:27:08.746Z,21.47
2018-08-20T10:29:36.975Z,21.30
2018-08-20T10:32:05.267Z,19.83
2018-08-20T10:34:33.488Z,19.97
2018-08-20T10:37:01.734Z,18.60
2018-08-20T10:39:30.016Z,23.70
2018-08-20T10:41:58.257Z,22.70
2018-08-20T10:44:26.503Z,22.80
2018-08-20T10:46:54.749Z,25.93
2018-08-20T10:51:57.563Z,22.17
2018-08-20T10:54:25.815Z,23.20
2018-08-20T10:56:54.120Z,29.60
2018-08-20T10:59:22.363Z,24.20
2018-08-20T11:01:50.635Z,22.70
2018-08-20T11:04:18.860Z,21.13
2018-08-20T11:06:47.114Z,21.80
2018-08-20T11:09:15.697Z,17.30
2018-08-20T11:11:44.007Z,24.67
2018-08-20T11:14:12.294Z,24.30
2018-08-20T11:16:40.534Z,21.97
2018-08-20T11:19:08.795Z,18.60
2018-08-20T11:21:37.016Z,17.90
2018-08-20T11:24:05.272Z,23.00
2018-08-20T11:26:33.566Z,20.67
2018-08-20T11:29:01.815Z,18.73
2018-08-20T11:31:30.049Z,21.30
2018-08-20T11:33:58.313Z,20.50
2018-08-20T11:36:26.546Z,17.33
2018-08-20T11:38:54.815Z,19.93
2018-08-20T11:41:23.075Z,16.50
2018-08-20T11:43:51.321Z,15.90
2018-08-20T11:46:19.533Z,16.83
2018-08-20T11:48:47.819Z,12.47
2018-08-20T11:51:16.078Z,9.30
2018-08-20T11:53:44.691Z,9.43
2018-08-20T11:56:12.953Z,10.53
2018-08-20T11:58:41.212Z,6.53
2018-08-20T12:01:09.512Z,6.73
2018-08-20T12:03:37.794Z,12.00
2018-08-20T12:06:06.252Z,7.90
2018-08-20T12:08:34.476Z,5.40
2018-08-20T12:11:02.720Z,4.60
2018-08-20T12:13:30.958Z,6.70
2018-08-20T12:15:59.207Z,3.77
2018-08-20T12:18:27.432Z,7.90
2018-08-20T12:20:55.663Z,3.47
2018-08-20T12:23:23.942Z,6.10
2018-08-20T12:25:52.187Z,4.97
2018-08-20T12:30:48.043Z,5.90
2018-08-20T12:33:16.225Z,9.70
2018-08-20T12:35:44.487Z,4.60
2018-08-20T12:38:12.737Z,6.07
2018-08-20T12:40:40.992Z,7.73
2018-08-20T12:43:09.203Z,8.67
2018-08-20T12:45:37.453Z,6.90
2018-08-20T12:48:05.706Z,6.23
2018-08-20T12:50:33.955Z,5.40
2018-08-20T12:53:02.271Z,5.27
2018-08-20T12:55:30.446Z,7.90
2018-08-20T12:57:58.674Z,6.30
2018-08-20T13:00:26.960Z,4.27
2018-08-20T13:02:55.223Z,7.83
2018-08-20T13:05:23.446Z,8.07
2018-08-20T13:07:51.692Z,6.70
2018-08-20T13:10:19.973Z,3.93
2018-08-20T13:12:48.214Z,8.00
2018-08-20T13:15:16.442Z,5.33
2018-08-20T13:17:44.726Z,4.47
2018-08-20T13:20:12.959Z,3.50
2018-08-20T13:22:41.188Z,4.50
2018-08-20T13:25:09.752Z,3.50
2018-08-20T13:27:38.087Z,6.50
2018-08-20T13:30:07.219Z,2.97
2018-08-20T13:32:35.859Z,4.50
2018-08-20T13:35:04.443Z,6.60
2018-08-20T13:37:32.707Z,3.90
2018-08-20T13:40:01.014Z,6.13
2018-08-20T13:42:29.635Z,2.80
2018-08-20T13:44:57.880Z,3.50
2018-08-20T13:47:26.168Z,4.00
2018-08-20T13:50:00.500Z,5.33
2018-08-20T13:52:28.908Z,7.33
2018-08-20T13:54:57.149Z,5.20
2018-08-20T13:57:26.043Z,10.00
2018-08-20T13:59:54.284Z,8.90
2018-08-20T14:02:22.533Z,4.70
2018-08-20T14:04:50.788Z,6.40
2018-08-20T14:07:19.021Z,6.67
2018-08-20T14:09:47.239Z,5.53
2018-08-20T14:12:15.517Z,4.80
2018-08-20T14:14:43.738Z,9.50
2018-08-20T14:17:11.978Z,5.33
2018-08-20T14:19:40.226Z,4.50
2018-08-20T14:22:08.498Z,5.47
2018-08-20T14:24:36.730Z,9.17
2018-08-20T14:27:04.695Z,6.17
2018-08-20T14:29:32.936Z,10.80
2018-08-20T14:32:01.179Z,6.00
2018-08-20T14:34:29.487Z,4.77
2018-08-20T14:36:57.828Z,3.73
2018-08-20T14:39:26.001Z,5.43
2018-08-20T14:41:54.254Z,3.30
2018-08-20T14:44:22.602Z,6.73
2018-08-20T14:46:50.826Z,3.43
2018-08-20T14:49:19.099Z,2.80
2018-08-20T14:51:47.347Z,2.27
2018-08-20T14:54:15.588Z,2.10
2018-08-20T14:56:43.820Z,2.53
2018-08-20T15:02:02.730Z,3.27
2018-08-20T15:04:31.928Z,2.40
2018-08-20T15:07:02.763Z,3.20
2018-08-20T15:09:31.513Z,4.43
2018-08-20T15:11:59.944Z,2.00
2018-08-20T15:14:28.261Z,2.20
2018-08-20T15:16:56.561Z,2.80
2018-08-20T15:19:24.840Z,3.83
2018-08-20T15:21:53.112Z,1.90
2018-08-20T15:24:21.360Z,1.60
2018-08-20T15:26:50.208Z,3.23
2018-08-20T15:29:19.229Z,1.70
2018-08-20T15:31:47.606Z,1.70
2018-08-20T15:34:16.095Z,2.13
2018-08-20T15:36:44.336Z,1.60
2018-08-20T15:39:12.905Z,2.97
2018-08-20T15:41:41.112Z,2.97
2018-08-20T15:44:10.111Z,1.60
2018-08-20T15:46:38.359Z,1.60
2018-08-20T15:49:06.844Z,9.10
2018-08-20T15:51:35.439Z,1.20
2018-08-20T15:54:03.699Z,2.90
2018-08-20T15:56:31.907Z,1.60
2018-08-20T15:59:00.451Z,1.90
2018-08-20T16:01:28.683Z,1.70
2018-08-20T16:03:56.896Z,1.50
2018-08-20T16:06:25.323Z,1.73
2018-08-20T16:08:53.781Z,1.77
2018-08-20T16:11:22.031Z,1.20
2018-08-20T16:13:50.362Z,1.50
2018-08-20T16:16:18.610Z,1.30
2018-08-20T16:18:46.861Z,1.30
2018-08-20T16:21:15.086Z,1.30
2018-08-20T16:23:43.324Z,1.20
2018-08-20T16:26:11.933Z,1.50
2018-08-20T16:28:40.167Z,1.37
2018-08-20T16:31:08.445Z,1.40
2018-08-20T16:33:36.820Z,1.70
2018-08-20T16:36:05.083Z,1.80
2018-08-20T16:38:33.548Z,3.70
2018-08-20T16:41:01.784Z,2.70
2018-08-20T16:43:30.064Z,1.93
2018-08-20T16:45:58.361Z,1.60
2018-08-20T16:48:26.577Z,1.30
2018-08-20T16:50:54.885Z,2.00
2018-08-20T16:53:23.106Z,2.83
2018-08-20T16:55:51.399Z,10.67
2018-08-20T16:58:19.643Z,2.70
2018-08-20T17:00:47.896Z,1.50
2018-08-20T17:03:16.164Z,1.30
2018-08-20T17:05:48.430Z,4.70
2018-08-20T17:08:20.968Z,1.33
2018-08-20T17:10:49.238Z,2.87
2018-08-20T17:13:17.463Z,1.80
2018-08-20T17:15:45.713Z,1.40
2018-08-20T17:18:14.019Z,1.43
2018-08-20T17:20:42.234Z,1.10
2018-08-20T17:23:20.835Z,1.60
2018-08-20T17:25:49.253Z,1.20
2018-08-20T17:28:20.612Z,1.20
2018-08-20T17:30:51.499Z,2.20
2018-08-20T17:33:19.772Z,1.00
2018-08-20T17:35:48.062Z,3.27
2018-08-20T17:38:16.275Z,2.80
2018-08-20T17:40:44.595Z,2.20
2018-08-20T17:43:12.856Z,1.00
2018-08-20T17:45:41.147Z,5.40
2018-08-20T17:48:18.130Z,1.87
2018-08-20T17:50:46.377Z,2.00
2018-08-20T17:53:14.636Z,2.27
2018-08-20T17:55:43.251Z,2.53
2018-08-20T17:58:11.615Z,1.67
2018-08-20T18:00:45.297Z,1.53
2018-08-20T18:03:19.816Z,1.13
2018-08-20T18:05:53.255Z,1.40
2018-08-20T18:08:22.331Z,2.27
2018-08-20T18:10:50.954Z,1.20
2018-08-20T18:13:32.336Z,1.93
2018-08-20T18:16:01.436Z,2.80
2018-08-20T18:18:30.344Z,1.23
2018-08-20T18:20:59.418Z,2.50
2018-08-20T18:23:28.161Z,1.57
2018-08-20T18:25:56.346Z,1.20
2018-08-20T18:28:24.621Z,2.43
2018-08-20T18:30:58.289Z,2.47
2018-08-20T18:33:28.168Z,1.47
2018-08-20T18:35:58.819Z,1.27
2018-08-20T18:38:27.097Z,20.70
2018-08-20T18:40:55.326Z,1.73
2018-08-20T18:43:23.679Z,1.77
2018-08-20T18:45:51.952Z,1.63
2018-08-20T18:48:24.658Z,1.50
2018-08-20T18:50:52.919Z,1.30
2018-08-20T18:53:25.409Z,4.00
2018-08-20T18:56:00.112Z,1.93
2018-08-20T18:58:30.636Z,2.13
2018-08-20T19:00:58.904Z,1.70
2018-08-20T19:03:30.419Z,1.53
2018-08-20T19:05:58.778Z,3.13
2018-08-20T19:08:27.030Z,2.60
2018-08-20T19:10:55.309Z,1.40
2018-08-20T19:13:23.608Z,1.30
2018-08-20T19:15:51.867Z,2.80
2018-08-20T19:18:21.621Z,1.93
2018-08-20T19:20:49.882Z,2.70
2018-08-20T19:23:18.140Z,1.60
2018-08-20T19:25:46.591Z,2.67
2018-08-20T19:28:20.033Z,1.30
2018-08-20T19:30:48.295Z,1.63
2018-08-20T19:33:22.031Z,1.73
2018-08-20T19:35:50.420Z,1.50
2018-08-20T19:38:18.924Z,1.73
2018-08-20T19:40:49.185Z,3.13
2018-08-20T19:43:17.439Z,1.50
2018-08-20T19:45:45.999Z,3.77
2018-08-20T19:50:47.245Z,1.57
2018-08-20T19:53:22.803Z,2.17
2018-08-20T19:55:51.218Z,1.87
2018-08-20T19:58:29.725Z,2.70
2018-08-20T20:01:08.569Z,5.43
2018-08-20T20:03:36.874Z,1.70
2018-08-20T20:06:05.159Z,1.40
2018-08-20T20:08:33.406Z,2.10
2018-08-20T20:11:01.663Z,3.00
2018-08-20T20:13:29.900Z,1.97
2018-08-20T20:16:00.045Z,1.57
2018-08-20T20:18:28.322Z,1.37
2018-08-20T20:20:56.680Z,2.00
2018-08-20T20:23:24.950Z,2.03
2018-08-20T20:25:53.178Z,2.30
2018-08-20T20:28:21.421Z,4.60
2018-08-20T20:30:49.713Z,1.47
2018-08-20T20:33:17.971Z,2.50
2018-08-20T20:35:46.275Z,3.13
2018-08-20T20:38:14.538Z,1.73
2018-08-20T20:40:42.807Z,3.27
2018-08-20T20:43:11.054Z,1.30
2018-08-20T20:45:39.300Z,1.37
2018-08-20T20:48:07.552Z,1.20
2018-08-20T20:50:35.798Z,2.07
2018-08-20T20:53:04.112Z,2.37
2018-08-20T20:55:32.364Z,1.80
2018-08-20T20:58:00.633Z,1.90
2018-08-20T21:00:28.873Z,4.30
2018-08-20T21:03:14.015Z,1.40
2018-08-20T21:05:42.381Z,4.07
2018-08-20T21:08:10.606Z,2.43
2018-08-20T21:10:44.156Z,2.00
2018-08-20T21:13:12.420Z,1.90
2018-08-20T21:15:40.807Z,1.20
2018-08-20T21:18:09.094Z,3.20
2018-08-20T21:20:37.353Z,3.63
2018-08-20T21:23:06.110Z,2.70
2018-08-20T21:25:34.424Z,1.50
2018-08-20T21:28:02.614Z,1.87
2018-08-20T21:30:35.109Z,2.53
2018-08-20T21:33:03.358Z,2.53
2018-08-20T21:35:31.608Z,1.60
2018-08-20T21:38:00.408Z,3.70
2018-08-20T21:40:29.963Z,1.50
2018-08-20T21:42:58.357Z,1.70
2018-08-20T21:45:26.854Z,1.40
2018-08-20T21:47:55.097Z,4.20
2018-08-20T21:50:23.290Z,2.40
2018-08-20T21:52:51.566Z,1.57
2018-08-20T21:55:19.778Z,6.93
2018-08-20T21:57:55.974Z,1.50
2018-08-20T22:00:24.505Z,2.17
2018-08-20T22:02:57.699Z,1.87
2018-08-20T22:05:29.361Z,1.90
2018-08-20T22:08:00.641Z,6.70
2018-08-20T22:10:29.633Z,3.33
2018-08-20T22:12:57.850Z,1.90
2018-08-20T22:15:26.111Z,3.33
2018-08-20T22:17:54.638Z,2.23
2018-08-20T22:20:22.895Z,2.57
2018-08-20T22:22:51.551Z,2.07
2018-08-20T22:25:19.818Z,2.40
2018-08-20T22:27:53.561Z,2.50
2018-08-20T22:30:21.756Z,3.17
2018-08-20T22:32:49.991Z,5.67
2018-08-20T22:35:25.016Z,2.57
2018-08-20T22:37:53.594Z,1.93
2018-08-20T22:40:22.809Z,2.10
2018-08-20T22:42:55.819Z,2.83
2018-08-20T22:45:24.029Z,3.27
2018-08-20T22:47:52.624Z,3.30
2018-08-20T22:50:20.847Z,1.70
2018-08-20T22:52:50.443Z,2.00
2018-08-20T22:55:19.826Z,1.60
2018-08-20T22:58:00.335Z,1.60
2018-08-20T23:00:28.830Z,1.80
2018-08-20T23:02:57.692Z,2.70
2018-08-20T23:05:29.935Z,2.00
2018-08-20T23:07:59.893Z,2.70
2018-08-20T23:10:29.023Z,2.50
2018-08-20T23:12:57.517Z,2.40
2018-08-20T23:15:25.770Z,3.77
2018-08-20T23:17:54.131Z,2.00
2018-08-20T23:20:30.405Z,16.20
2018-08-20T23:22:58.785Z,1.97
2018-08-20T23:25:27.126Z,3.07
2018-08-20T23:27:55.356Z,3.57
2018-08-20T23:30:27.540Z,3.30
2018-08-20T23:32:55.783Z,4.23
2018-08-20T23:35:24.019Z,2.13
2018-08-20T23:37:52.630Z,2.50
2018-08-20T23:40:20.833Z,2.80
2018-08-20T23:42:49.129Z,2.40
2018-08-20T23:45:17.347Z,2.20
2018-08-20T23:47:45.574Z,3.67
2018-08-20T23:50:13.863Z,2.60
2018-08-20T23:52:42.063Z,2.20
2018-08-20T23:55:10.310Z,2.87
2018-08-20T23:57:38.541Z,3.47
